Time;durP1;ratioP1;P1;durP2;ratioP2;P2;SDS_P1;SDS_P2;PMS_P1;PMS_P2;Temp;Humidity;BMP_temperature;BMP_pressure;BME280_temperature;BME280_humidity;BME280_pressure;Samples;Min_cycle;Max_cycle;Signal;HPM_P1;HPM_P2
2021/05/05 00:00:28;;;;;;;6.50;5.80;;;;;;;;;;4995040;28;20233;-83
2021/05/05 00:02:54;;;;;;;6.37;5.23;;;;;;;;;;4995047;28;20671;-83
2021/05/05 00:05:20;;;;;;;6.27;5.67;;;;;;;;;;4994276;28;20201;-83
2021/05/05 00:07:45;;;;;;;6.80;5.70;;;;;;;;;;4994390;28;20184;-83
2021/05/05 00:10:11;;;;;;;8.03;5.70;;;;;;;;;;4994305;28;20170;-82
2021/05/05 00:12:37;;;;;;;6.40;5.43;;;;;;;;;;5009376;28;20262;-82
2021/05/05 00:15:11;;;;;;;7.77;6.17;;;;;;;;;;4994228;28;20197;-82
2021/05/05 00:17:36;;;;;;;5.93;5.33;;;;;;;;;;4994516;28;20260;-82
2021/05/05 00:20:03;;;;;;;8.70;6.03;;;;;;;;;;4993949;28;20266;-82
2021/05/05 00:22:29;;;;;;;8.67;5.90;;;;;;;;;;4994649;28;20173;-82
2021/05/05 00:24:54;;;;;;;8.33;5.93;;;;;;;;;;4997791;28;20202;-82
2021/05/05 00:27:19;;;;;;;9.03;6.70;;;;;;;;;;4998115;28;20268;-82
2021/05/05 00:29:45;;;;;;;7.97;6.60;;;;;;;;;;5013273;28;20177;-82
2021/05/05 00:32:10;;;;;;;8.97;7.57;;;;;;;;;;4998241;28;20170;-82
2021/05/05 00:34:35;;;;;;;12.00;7.70;;;;;;;;;;4998331;28;20189;-82
2021/05/05 00:37:01;;;;;;;7.50;6.63;;;;;;;;;;4997589;28;20177;-82
2021/05/05 00:39:26;;;;;;;8.07;6.37;;;;;;;;;;4998297;28;20178;-82
2021/05/05 00:41:51;;;;;;;7.50;5.73;;;;;;;;;;4997776;28;20170;-82
2021/05/05 00:44:19;;;;;;;9.60;6.43;;;;;;;;;;4998165;28;20204;-82
2021/05/05 00:46:44;;;;;;;8.47;6.60;;;;;;;;;;4997728;28;20182;-82
2021/05/05 00:49:09;;;;;;;8.97;5.90;;;;;;;;;;4997913;28;20173;-83
2021/05/05 00:51:35;;;;;;;7.53;6.03;;;;;;;;;;4997648;28;20177;-83
2021/05/05 00:54:00;;;;;;;6.23;5.53;;;;;;;;;;4997692;28;20208;-83
2021/05/05 00:56:26;;;;;;;6.63;5.60;;;;;;;;;;4998173;28;20169;-83
2021/05/05 00:58:51;;;;;;;6.87;5.87;;;;;;;;;;4997073;28;20621;-83
2021/05/05 01:01:17;;;;;;;8.03;6.00;;;;;;;;;;4997714;28;20170;-83
2021/05/05 01:03:42;;;;;;;6.97;5.87;;;;;;;;;;4997660;28;20174;-83
2021/05/05 01:06:07;;;;;;;7.83;6.23;;;;;;;;;;4997287;28;20232;-83
2021/05/05 01:08:33;;;;;;;6.57;5.87;;;;;;;;;;4997870;28;20636;-83
2021/05/05 01:10:58;;;;;;;6.93;6.07;;;;;;;;;;4997436;28;20205;-82
2021/05/05 01:13:25;;;;;;;6.47;5.60;;;;;;;;;;4997326;28;20618;-83
2021/05/05 01:15:50;;;;;;;8.13;5.63;;;;;;;;;;5012211;28;20204;-83
2021/05/05 01:18:15;;;;;;;7.53;5.27;;;;;;;;;;4997394;28;20268;-83
2021/05/05 01:20:41;;;;;;;7.23;5.27;;;;;;;;;;4997343;28;20597;-83
2021/05/05 01:23:06;;;;;;;7.27;5.70;;;;;;;;;;4997593;28;20564;-83
2021/05/05 01:25:31;;;;;;;7.33;5.77;;;;;;;;;;4996921;28;20194;-83
2021/05/05 01:27:57;;;;;;;7.27;6.07;;;;;;;;;;4997281;28;20605;-82
2021/05/05 01:30:23;;;;;;;6.53;5.50;;;;;;;;;;4997077;28;20633;-82
2021/05/05 01:32:49;;;;;;;8.73;6.00;;;;;;;;;;4996571;28;20181;-83
2021/05/05 01:35:14;;;;;;;6.23;5.60;;;;;;;;;;4996585;28;20178;-82
2021/05/05 01:37:41;;;;;;;6.03;5.47;;;;;;;;;;4996825;28;20235;-83
2021/05/05 01:40:07;;;;;;;8.00;5.80;;;;;;;;;;4996749;28;20178;-82
2021/05/05 01:42:32;;;;;;;6.87;5.97;;;;;;;;;;4996674;28;20170;-82
2021/05/05 01:44:58;;;;;;;10.27;6.13;;;;;;;;;;4996615;28;20220;-82
2021/05/05 01:47:23;;;;;;;7.57;6.03;;;;;;;;;;4996675;28;20214;-82
2021/05/05 01:49:49;;;;;;;7.97;6.20;;;;;;;;;;4996355;28;20173;-83
2021/05/05 01:52:15;;;;;;;7.77;6.30;;;;;;;;;;4996533;28;20166;-83
2021/05/05 01:54:41;;;;;;;8.17;6.10;;;;;;;;;;4996212;28;20185;-83
2021/05/05 01:57:24;;;;;;;7.67;5.93;;;;;;;;;;4996460;28;20518;-83
2021/05/05 01:59:51;;;;;;;8.43;6.00;;;;;;;;;;4996648;28;20261;-83
2021/05/05 02:02:16;;;;;;;6.83;5.90;;;;;;;;;;4996605;28;20209;-83
2021/05/05 02:04:41;;;;;;;6.33;5.73;;;;;;;;;;4996526;28;20229;-83
2021/05/05 02:07:07;;;;;;;8.10;6.07;;;;;;;;;;4996412;28;20228;-83
2021/05/05 02:09:32;;;;;;;6.23;5.63;;;;;;;;;;4996520;28;20177;-83
2021/05/05 02:11:58;;;;;;;6.70;6.00;;;;;;;;;;4996406;28;20166;-83
2021/05/05 02:14:23;;;;;;;6.87;6.03;;;;;;;;;;4996326;28;20193;-83
2021/05/05 02:16:58;;;;;;;7.20;5.37;;;;;;;;;;4994828;28;20185;-83
2021/05/05 02:19:23;;;;;;;8.07;5.73;;;;;;;;;;4996398;28;20173;-83
2021/05/05 02:21:49;;;;;;;10.07;6.40;;;;;;;;;;4994497;28;20182;-83
2021/05/05 02:24:14;;;;;;;7.57;6.13;;;;;;;;;;4995973;28;20200;-82
2021/05/05 02:26:40;;;;;;;6.63;6.00;;;;;;;;;;4996466;28;20178;-82
2021/05/05 02:29:05;;;;;;;8.00;6.60;;;;;;;;;;4995578;28;20206;-82
2021/05/05 02:31:31;;;;;;;9.37;7.23;;;;;;;;;;4995807;28;20174;-83
2021/05/05 02:33:56;;;;;;;11.03;7.23;;;;;;;;;;4995453;28;20529;-83
2021/05/05 02:36:21;;;;;;;8.30;6.40;;;;;;;;;;4995493;28;20177;-83
2021/05/05 02:38:47;;;;;;;8.50;6.27;;;;;;;;;;4995458;28;20177;-83
2021/05/05 02:41:12;;;;;;;10.87;6.33;;;;;;;;;;4995458;28;20248;-83
2021/05/05 02:43:37;;;;;;;6.50;5.80;;;;;;;;;;4995901;28;20521;-83
2021/05/05 02:46:03;;;;;;;6.80;5.33;;;;;;;;;;4994743;28;20648;-83
2021/05/05 02:48:28;;;;;;;6.20;5.47;;;;;;;;;;4995256;28;20322;-83
2021/05/05 02:50:53;;;;;;;7.80;6.07;;;;;;;;;;4995724;28;20174;-83
2021/05/05 02:53:19;;;;;;;6.27;5.40;;;;;;;;;;4996001;28;20170;-83
2021/05/05 02:55:44;;;;;;;6.43;5.50;;;;;;;;;;4995434;28;20624;-83
2021/05/05 02:58:09;;;;;;;6.43;5.50;;;;;;;;;;4995234;28;20528;-84
2021/05/05 03:00:35;;;;;;;6.03;5.43;;;;;;;;;;4995360;28;20189;-83
2021/05/05 03:03:00;;;;;;;6.67;5.83;;;;;;;;;;4995264;28;20174;-83
2021/05/05 03:05:25;;;;;;;6.87;5.77;;;;;;;;;;4994839;28;20215;-83
2021/05/05 03:07:50;;;;;;;7.60;5.90;;;;;;;;;;4995196;28;20182;-83
2021/05/05 03:10:17;;;;;;;6.63;5.77;;;;;;;;;;4994801;28;20266;-83
2021/05/05 03:12:42;;;;;;;8.13;5.77;;;;;;;;;;4994746;28;20205;-83
2021/05/05 03:15:08;;;;;;;6.90;5.73;;;;;;;;;;4995323;28;20699;-83
2021/05/05 03:17:34;;;;;;;8.13;5.87;;;;;;;;;;4995345;28;20177;-83
2021/05/05 03:19:59;;;;;;;7.33;5.90;;;;;;;;;;4994855;28;20536;-83
2021/05/05 03:22:24;;;;;;;6.77;5.47;;;;;;;;;;4994636;28;20170;-83
2021/05/05 03:24:50;;;;;;;6.53;5.27;;;;;;;;;;4994481;28;20205;-83
2021/05/05 03:27:15;;;;;;;8.47;6.00;;;;;;;;;;4994836;28;20185;-83
2021/05/05 03:29:40;;;;;;;9.13;5.63;;;;;;;;;;4995377;28;20177;-83
2021/05/05 03:32:06;;;;;;;8.20;6.27;;;;;;;;;;5009853;28;20187;-83
2021/05/05 03:34:31;;;;;;;6.80;5.63;;;;;;;;;;4994787;28;20262;-83
2021/05/05 03:36:56;;;;;;;9.47;6.50;;;;;;;;;;4993690;28;20620;-83
2021/05/05 03:39:22;;;;;;;14.53;7.13;;;;;;;;;;4994950;28;20239;-83
2021/05/05 03:41:47;;;;;;;12.67;7.27;;;;;;;;;;4994692;28;20202;-83
2021/05/05 03:44:12;;;;;;;11.77;8.00;;;;;;;;;;4994350;28;20170;-83
2021/05/05 03:46:38;;;;;;;14.23;8.70;;;;;;;;;;4995152;28;20228;-83
2021/05/05 03:49:05;;;;;;;15.60;8.90;;;;;;;;;;4994677;28;20245;-83
2021/05/05 03:51:30;;;;;;;14.63;9.33;;;;;;;;;;4994595;28;20181;-83
2021/05/05 03:53:55;;;;;;;13.93;8.67;;;;;;;;;;4994332;28;20174;-83
2021/05/05 03:56:21;;;;;;;14.17;9.37;;;;;;;;;;4995571;28;20173;-83
2021/05/05 03:58:46;;;;;;;15.33;10.50;;;;;;;;;;5000807;28;20316;-83
2021/05/05 04:01:11;;;;;;;14.73;10.33;;;;;;;;;;5000933;28;20609;-82
2021/05/05 04:03:37;;;;;;;14.57;8.70;;;;;;;;;;5001250;28;20174;-83
2021/05/05 04:06:02;;;;;;;12.37;8.37;;;;;;;;;;5000841;28;20672;-83
2021/05/05 04:08:27;;;;;;;10.50;7.50;;;;;;;;;;5000901;28;20586;-83
2021/05/05 04:10:53;;;;;;;8.83;7.30;;;;;;;;;;5001211;28;20170;-83
2021/05/05 04:13:18;;;;;;;7.57;6.37;;;;;;;;;;5001142;28;20166;-83
2021/05/05 04:15:43;;;;;;;7.77;6.47;;;;;;;;;;5000441;28;20522;-83
2021/05/05 04:18:09;;;;;;;8.03;6.17;;;;;;;;;;5000491;28;20173;-83
2021/05/05 04:20:34;;;;;;;7.20;6.27;;;;;;;;;;5001061;28;20170;-83
2021/05/05 04:22:59;;;;;;;7.57;6.00;;;;;;;;;;5000530;28;20275;-83
2021/05/05 04:25:25;;;;;;;8.53;6.40;;;;;;;;;;5000677;28;20216;-83
2021/05/05 04:27:50;;;;;;;7.13;5.97;;;;;;;;;;5001319;28;20185;-83
2021/05/05 04:30:19;;;;;;;8.50;6.23;;;;;;;;;;5000626;28;20613;-83
2021/05/05 04:32:49;;;;;;;7.47;6.20;;;;;;;;;;5001040;28;20216;-82
2021/05/05 04:35:14;;;;;;;10.93;6.40;;;;;;;;;;5000529;28;20178;-82
2021/05/05 04:37:40;;;;;;;7.33;6.10;;;;;;;;;;5000309;28;20178;-82
2021/05/05 04:40:06;;;;;;;9.73;7.00;;;;;;;;;;5000625;28;20215;-82
2021/05/05 04:42:31;;;;;;;10.97;7.03;;;;;;;;;;5000593;28;20174;-83
2021/05/05 04:45:00;;;;;;;7.10;6.40;;;;;;;;;;5000640;28;20205;-83
2021/05/05 04:47:25;;;;;;;9.17;6.90;;;;;;;;;;5000394;28;20178;-83
2021/05/05 04:49:51;;;;;;;8.90;7.13;;;;;;;;;;5000791;28;20170;-83
2021/05/05 04:52:16;;;;;;;8.03;6.87;;;;;;;;;;5000240;28;20571;-83
2021/05/05 04:54:41;;;;;;;11.40;7.57;;;;;;;;;;5000209;28;20625;-83
2021/05/05 04:57:07;;;;;;;11.13;7.57;;;;;;;;;;5016337;28;20528;-83
2021/05/05 04:59:32;;;;;;;11.10;7.03;;;;;;;;;;5000748;28;20233;-83
2021/05/05 05:01:57;;;;;;;8.27;6.53;;;;;;;;;;5015566;28;20181;-83
2021/05/05 05:04:22;;;;;;;8.90;6.10;;;;;;;;;;5000222;28;20194;-83
2021/05/05 05:06:48;;;;;;;7.17;5.50;;;;;;;;;;5000145;28;20178;-83
2021/05/05 05:09:13;;;;;;;6.90;6.20;;;;;;;;;;4997439;28;20174;-83
2021/05/05 05:11:38;;;;;;;13.03;7.33;;;;;;;;;;4997873;28;20162;-83
2021/05/05 05:14:04;;;;;;;11.57;7.40;;;;;;;;;;5012261;28;20558;-83
2021/05/05 05:16:29;;;;;;;12.30;8.70;;;;;;;;;;4996906;28;20632;-83
2021/05/05 05:18:54;;;;;;;9.40;7.37;;;;;;;;;;4997467;28;20232;-83
2021/05/05 05:21:20;;;;;;;12.33;8.00;;;;;;;;;;4997587;28;20170;-83
2021/05/05 05:23:45;;;;;;;9.73;7.80;;;;;;;;;;4997529;28;20174;-83
2021/05/05 05:26:11;;;;;;;12.10;9.20;;;;;;;;;;4996732;28;20670;-83
2021/05/05 05:28:36;;;;;;;15.77;12.40;;;;;;;;;;5012125;28;20197;-83
2021/05/05 05:31:01;;;;;;;16.07;12.97;;;;;;;;;;4996986;28;20224;-83
2021/05/05 05:33:27;;;;;;;16.03;11.40;;;;;;;;;;4996920;28;20166;-83
2021/05/05 05:35:52;;;;;;;16.50;9.30;;;;;;;;;;4996863;28;20210;-83
2021/05/05 05:38:18;;;;;;;13.27;9.17;;;;;;;;;;5012089;28;20232;-83
2021/05/05 05:40:43;;;;;;;10.30;7.40;;;;;;;;;;4997538;28;20173;-83
2021/05/05 05:43:09;;;;;;;7.53;6.73;;;;;;;;;;4997026;28;20177;-83
2021/05/05 05:45:34;;;;;;;10.03;6.50;;;;;;;;;;4996644;28;20284;-83
2021/05/05 05:48:00;;;;;;;9.93;8.03;;;;;;;;;;4996382;28;20609;-83
2021/05/05 05:50:26;;;;;;;8.67;7.37;;;;;;;;;;4996329;28;20265;-84
2021/05/05 05:52:51;;;;;;;11.80;7.50;;;;;;;;;;4996296;28;20185;-84
2021/05/05 05:55:18;;;;;;;11.18;7.22;;;;;;;;;;4996284;28;20174;-84
2021/05/05 05:57:44;;;;;;;7.55;6.50;;;;;;;;;;4996675;28;20535;-84
2021/05/05 06:00:10;;;;;;;8.90;6.05;;;;;;;;;;4994705;28;20225;-83
2021/05/05 06:02:36;;;;;;;7.43;6.70;;;;;;;;;;4996298;28;20269;-83
2021/05/05 06:05:01;;;;;;;6.50;5.82;;;;;;;;;;5012158;28;20217;-84
2021/05/05 06:07:27;;;;;;;6.43;5.80;;;;;;;;;;4996327;28;20629;-84
2021/05/05 06:09:52;;;;;;;7.13;5.90;;;;;;;;;;4995908;28;20170;-84
2021/05/05 06:12:17;;;;;;;6.57;5.65;;;;;;;;;;4995969;28;20169;-84
2021/05/05 06:14:43;;;;;;;7.53;5.40;;;;;;;;;;4996138;28;20196;-83
2021/05/05 06:17:08;;;;;;;8.35;5.28;;;;;;;;;;4995842;28;20180;-84
2021/05/05 06:19:33;;;;;;;5.88;5.07;;;;;;;;;;5010499;28;20180;-84
2021/05/05 06:21:59;;;;;;;6.18;4.95;;;;;;;;;;4995652;28;20264;-84
2021/05/05 06:24:24;;;;;;;5.38;4.85;;;;;;;;;;4996414;28;20284;-84
2021/05/05 06:26:49;;;;;;;6.10;5.10;;;;;;;;;;4995662;28;20580;-84
2021/05/05 06:29:15;;;;;;;5.80;5.22;;;;;;;;;;4995782;28;20621;-84
2021/05/05 06:31:40;;;;;;;9.63;5.18;;;;;;;;;;4995875;28;20166;-84
2021/05/05 06:34:05;;;;;;;7.03;5.28;;;;;;;;;;4996047;28;20171;-84
2021/05/05 06:36:31;;;;;;;7.03;5.13;;;;;;;;;;4995423;28;20166;-84
2021/05/05 06:38:57;;;;;;;7.07;5.53;;;;;;;;;;4995692;28;20528;-84
2021/05/05 06:41:22;;;;;;;4.90;4.40;;;;;;;;;;5010669;28;20178;-84
2021/05/05 06:43:47;;;;;;;5.22;4.75;;;;;;;;;;4995711;28;20181;-84
2021/05/05 06:46:13;;;;;;;6.90;4.75;;;;;;;;;;4995889;28;20189;-84
2021/05/05 06:48:38;;;;;;;6.82;4.50;;;;;;;;;;4993943;28;20189;-84
2021/05/05 06:51:03;;;;;;;5.47;4.93;;;;;;;;;;4995445;28;20205;-85
2021/05/05 06:53:29;;;;;;;4.60;4.07;;;;;;;;;;4995697;28;20644;-84
2021/05/05 06:55:54;;;;;;;5.63;4.68;;;;;;;;;;4995342;28;20170;-84
2021/05/05 07:01:22;;;;;;;7.03;4.93;;;;;;;;;;4956484;29;20532;-83
2021/05/05 07:06:50;;;;;;;6.43;5.18;;;;;;;;;;4962968;28;20255;-84
2021/05/05 07:12:19;;;;;;;6.30;4.88;;;;;;;;;;4974375;28;20248;-84
2021/05/05 07:14:44;;;;;;;6.28;5.25;;;;;;;;;;4990531;28;20198;-84
2021/05/05 07:17:09;;;;;;;7.50;5.30;;;;;;;;;;4990509;28;20606;-84
2021/05/05 07:19:35;;;;;;;5.50;5.00;;;;;;;;;;4975610;28;20171;-84
2021/05/05 07:22:00;;;;;;;6.85;4.90;;;;;;;;;;4989428;28;20180;-82
2021/05/05 07:24:26;;;;;;;6.57;4.80;;;;;;;;;;4974493;28;20206;-85
2021/05/05 07:26:51;;;;;;;5.18;4.47;;;;;;;;;;4974997;28;20182;-84
2021/05/05 07:29:16;;;;;;;5.97;4.57;;;;;;;;;;4975154;28;20201;-85
2021/05/05 07:31:42;;;;;;;5.10;4.60;;;;;;;;;;4975372;28;20298;-83
2021/05/05 07:34:09;;;;;;;5.00;4.57;;;;;;;;;;4975326;28;20174;-85
2021/05/05 07:36:35;;;;;;;5.95;4.60;;;;;;;;;;4973965;28;20597;-86
2021/05/05 07:45:31;;;;;;;4.75;4.30;;;;;;;;;;4975218;28;20185;-86
2021/05/05 07:47:28;;;;;;;3.80;3.50;;;;;;;;;;4974127;28;20182;-86
2021/05/05 07:49:55;;;;;;;6.38;4.45;;;;;;;;;;4975978;28;20162;-86
2021/05/05 07:52:21;;;;;;;4.55;4.10;;;;;;;;;;4974854;28;20170;-85
2021/05/05 07:54:47;;;;;;;4.20;3.80;;;;;;;;;;4974799;28;20192;-84
2021/05/05 07:57:12;;;;;;;4.18;3.88;;;;;;;;;;4975310;28;20665;-85
2021/05/05 07:59:38;;;;;;;5.40;4.10;;;;;;;;;;4975171;28;20226;-84
2021/05/05 08:02:04;;;;;;;5.50;4.80;;;;;;;;;;4974778;28;20641;-83
2021/05/05 08:04:30;;;;;;;4.88;4.43;;;;;;;;;;4974865;28;20200;-83
2021/05/05 08:06:56;;;;;;;5.45;4.30;;;;;;;;;;4974964;28;20615;-83
2021/05/05 08:09:24;;;;;;;5.97;4.25;;;;;;;;;;4975147;28;20257;-84
2021/05/05 08:11:49;;;;;;;5.15;3.90;;;;;;;;;;4973496;28;20544;-83
2021/05/05 08:14:15;;;;;;;4.30;3.90;;;;;;;;;;4973916;28;20175;-84
2021/05/05 08:16:40;;;;;;;4.07;3.63;;;;;;;;;;4974622;28;20176;-83
2021/05/05 08:19:06;;;;;;;4.68;4.18;;;;;;;;;;4975123;28;20177;-84
2021/05/05 08:21:31;;;;;;;4.10;3.80;;;;;;;;;;4974663;28;20171;-84
2021/05/05 08:23:57;;;;;;;4.25;3.95;;;;;;;;;;4974857;28;20175;-85
2021/05/05 08:26:23;;;;;;;4.18;3.88;;;;;;;;;;4974441;28;20202;-84
2021/05/05 08:28:48;;;;;;;6.00;4.28;;;;;;;;;;4974543;28;20217;-85
2021/05/05 08:31:13;;;;;;;4.30;4.00;;;;;;;;;;4973513;28;20178;-86
2021/05/05 08:33:39;;;;;;;4.80;4.40;;;;;;;;;;4973710;28;20179;-85
2021/05/05 08:36:05;;;;;;;5.13;4.53;;;;;;;;;;4975650;28;20182;-85
2021/05/05 08:38:30;;;;;;;5.13;4.63;;;;;;;;;;4974436;28;20170;-85
2021/05/05 08:40:56;;;;;;;5.25;4.55;;;;;;;;;;4974706;28;20193;-85
2021/05/05 08:43:21;;;;;;;4.80;4.40;;;;;;;;;;4975149;28;20581;-85
2021/05/05 08:45:47;;;;;;;5.00;4.38;;;;;;;;;;4977807;28;20214;-86
2021/05/05 08:48:12;;;;;;;5.00;4.60;;;;;;;;;;4977596;28;20174;-86
2021/05/05 08:50:39;;;;;;;5.22;4.72;;;;;;;;;;4978099;28;20606;-86
2021/05/05 08:53:05;;;;;;;5.82;5.25;;;;;;;;;;4978215;28;20175;-86
2021/05/05 08:55:31;;;;;;;5.20;4.70;;;;;;;;;;4978316;28;20266;-86
2021/05/05 08:57:57;;;;;;;5.65;5.15;;;;;;;;;;4978374;28;20221;-86
2021/05/05 09:00:24;;;;;;;7.72;5.22;;;;;;;;;;4977854;28;20238;-86
2021/05/05 09:02:49;;;;;;;5.97;5.38;;;;;;;;;;4978079;28;20170;-85
2021/05/05 09:05:16;;;;;;;5.45;4.95;;;;;;;;;;4977734;28;20659;-86
2021/05/05 09:07:42;;;;;;;6.63;5.00;;;;;;;;;;4977638;28;20225;-85
2021/05/05 09:10:20;;;;;;;6.10;5.00;;;;;;;;;;4978009;28;20182;-85
2021/05/05 09:12:46;;;;;;;5.90;5.13;;;;;;;;;;4977926;28;20186;-85
2021/05/05 09:15:19;;;;;;;5.85;5.05;;;;;;;;;;4978006;28;20194;-85
2021/05/05 09:17:46;;;;;;;7.05;5.10;;;;;;;;;;4978435;28;20524;-84
2021/05/05 09:20:28;;;;;;;5.43;4.93;;;;;;;;;;4977713;28;20257;-84
2021/05/05 09:22:59;;;;;;;5.73;5.10;;;;;;;;;;4977882;28;20266;-84
2021/05/05 09:25:25;;;;;;;6.97;5.30;;;;;;;;;;4977722;28;20645;-85
2021/05/05 09:28:09;;;;;;;5.40;4.90;;;;;;;;;;4977619;28;20250;-85
2021/05/05 09:30:35;;;;;;;9.20;4.93;;;;;;;;;;4977532;28;20175;-85
2021/05/05 09:33:00;;;;;;;6.00;5.00;;;;;;;;;;4977516;28;20202;-85
2021/05/05 09:35:29;;;;;;;7.37;4.90;;;;;;;;;;4977632;28;20618;-84
2021/05/05 09:37:56;;;;;;;5.60;5.00;;;;;;;;;;4977403;28;20266;-84
2021/05/05 09:40:23;;;;;;;7.17;4.90;;;;;;;;;;4977243;28;20186;-86
2021/05/05 09:42:49;;;;;;;5.13;4.70;;;;;;;;;;4977371;28;20644;-85
2021/05/05 09:45:15;;;;;;;9.73;5.20;;;;;;;;;;4977190;28;20202;-85
2021/05/05 09:47:46;;;;;;;5.35;4.47;;;;;;;;;;4977220;28;20171;-85
2021/05/05 09:50:30;;;;;;;6.15;4.70;;;;;;;;;;4992066;28;20270;-85
2021/05/05 09:53:14;;;;;;;7.50;4.90;;;;;;;;;;4977172;28;20610;-85
2021/05/05 09:55:40;;;;;;;6.57;4.75;;;;;;;;;;4976644;28;20170;-85
2021/05/05 09:58:25;;;;;;;7.20;4.93;;;;;;;;;;4976340;28;20559;-84
2021/05/05 10:01:06;;;;;;;9.82;5.13;;;;;;;;;;4977018;28;20197;-85
2021/05/05 10:03:48;;;;;;;6.03;5.13;;;;;;;;;;4976929;28;20177;-84
2021/05/05 10:06:24;;;;;;;5.50;4.97;;;;;;;;;;4977463;28;20229;-84
2021/05/05 10:08:54;;;;;;;10.38;5.18;;;;;;;;;;4977106;28;20170;-84
2021/05/05 10:11:28;;;;;;;6.17;4.70;;;;;;;;;;4977039;28;20170;-85
2021/05/05 10:13:59;;;;;;;5.20;4.70;;;;;;;;;;4976779;28;20174;-84
2021/05/05 10:16:26;;;;;;;6.57;5.20;;;;;;;;;;4976614;28;20261;-84
2021/05/05 10:18:52;;;;;;;5.63;4.80;;;;;;;;;;4976853;28;20182;-83
2021/05/05 10:21:19;;;;;;;5.27;4.77;;;;;;;;;;4976633;28;20626;-83
2021/05/05 10:23:45;;;;;;;6.07;5.40;;;;;;;;;;4976524;28;20637;-84
2021/05/05 10:26:11;;;;;;;5.33;4.13;;;;;;;;;;5007642;28;20240;-84
2021/05/05 10:28:37;;;;;;;5.13;4.00;;;;;;;;;;4976275;28;20182;-85
2021/05/05 10:31:03;;;;;;;7.00;4.10;;;;;;;;;;4976129;28;20229;-85
2021/05/05 10:33:36;;;;;;;4.40;4.00;;;;;;;;;;4976303;28;20175;-85
2021/05/05 10:36:20;;;;;;;4.40;4.00;;;;;;;;;;4976582;28;20171;-83
2021/05/05 10:38:45;;;;;;;5.50;4.07;;;;;;;;;;4991277;28;20181;-84
2021/05/05 10:41:11;;;;;;;4.10;3.80;;;;;;;;;;4976214;28;20171;-84
2021/05/05 10:43:46;;;;;;;5.97;3.70;;;;;;;;;;4976419;28;20202;-83
2021/05/05 10:46:23;;;;;;;4.30;3.90;;;;;;;;;;4980544;28;20201;-83
2021/05/05 10:49:09;;;;;;;4.70;4.30;;;;;;;;;;4991393;28;20185;-84
2021/05/05 10:51:44;;;;;;;5.33;4.27;;;;;;;;;;4957099;28;20205;-83
2021/05/05 10:54:09;;;;;;;6.33;4.10;;;;;;;;;;4985764;28;20181;-83
2021/05/05 10:56:35;;;;;;;4.37;3.80;;;;;;;;;;4994227;28;20204;-84
2021/05/05 10:59:01;;;;;;;4.60;4.13;;;;;;;;;;4995135;28;20568;-84
2021/05/05 11:01:40;;;;;;;4.10;3.80;;;;;;;;;;4995505;28;20178;-83
2021/05/05 11:04:06;;;;;;;4.03;3.73;;;;;;;;;;4995235;28;20260;-83
2021/05/05 11:06:34;;;;;;;3.97;3.67;;;;;;;;;;4994528;28;20252;-83
2021/05/05 11:09:03;;;;;;;4.20;3.70;;;;;;;;;;4994943;28;20564;-83
2021/05/05 11:11:35;;;;;;;5.50;3.90;;;;;;;;;;4979959;28;20178;-84
2021/05/05 11:14:00;;;;;;;4.97;3.73;;;;;;;;;;4974776;28;20172;-84
2021/05/05 11:16:45;;;;;;;4.63;4.20;;;;;;;;;;4974866;28;20170;-84
2021/05/05 11:19:30;;;;;;;4.30;3.90;;;;;;;;;;4974712;28;20171;-84
2021/05/05 11:21:56;;;;;;;4.60;4.20;;;;;;;;;;4973420;28;20166;-84
2021/05/05 11:24:28;;;;;;;4.30;3.90;;;;;;;;;;4974152;28;20209;-83
2021/05/05 11:29:56;;;;;;;7.27;5.30;;;;;;;;;;4961655;28;20228;-84
2021/05/05 11:32:22;;;;;;;5.30;4.80;;;;;;;;;;4975461;28;20174;-84
2021/05/05 11:34:47;;;;;;;4.60;4.17;;;;;;;;;;4975097;28;20183;-84
2021/05/05 11:37:23;;;;;;;5.13;4.30;;;;;;;;;;4975748;28;20209;-84
2021/05/05 11:39:54;;;;;;;4.43;4.07;;;;;;;;;;4973927;28;20229;-85
2021/05/05 11:42:22;;;;;;;4.33;3.93;;;;;;;;;;4975072;28;20174;-84
2021/05/05 11:44:49;;;;;;;4.50;4.10;;;;;;;;;;4973857;28;20202;-85
2021/05/05 11:47:16;;;;;;;3.97;3.60;;;;;;;;;;4974008;28;20702;-84
2021/05/05 11:49:43;;;;;;;4.03;3.73;;;;;;;;;;4974910;28;20188;-84
2021/05/05 11:52:18;;;;;;;4.00;3.70;;;;;;;;;;4975052;28;20625;-83
2021/05/05 11:54:43;;;;;;;3.90;3.50;;;;;;;;;;4974847;28;20170;-84
2021/05/05 11:57:08;;;;;;;3.90;3.60;;;;;;;;;;4974430;28;20173;-84
2021/05/05 11:59:34;;;;;;;5.93;3.53;;;;;;;;;;4974111;28;20226;-84
2021/05/05 12:02:05;;;;;;;4.73;3.50;;;;;;;;;;4974259;28;20185;-84
2021/05/05 12:04:41;;;;;;;3.90;3.60;;;;;;;;;;4974202;28;20690;-84
2021/05/05 12:07:07;;;;;;;5.57;3.67;;;;;;;;;;4974289;28;20257;-85
2021/05/05 12:09:39;;;;;;;4.10;3.60;;;;;;;;;;4974717;28;20178;-84
2021/05/05 12:12:12;;;;;;;3.83;3.53;;;;;;;;;;4974432;28;20257;-84
2021/05/05 12:14:38;;;;;;;3.93;3.63;;;;;;;;;;4974023;28;20183;-84
2021/05/05 12:17:27;;;;;;;4.30;3.88;;;;;;;;;;4973986;28;20649;-84
2021/05/05 12:20:00;;;;;;;3.70;3.37;;;;;;;;;;4976330;28;20205;-84
2021/05/05 12:22:28;;;;;;;3.27;3.07;;;;;;;;;;4978237;28;20689;-84
2021/05/05 12:25:03;;;;;;;4.07;2.80;;;;;;;;;;4977328;28;20210;-84
2021/05/05 12:27:28;;;;;;;7.53;3.27;;;;;;;;;;4978142;28;20209;-84
2021/05/05 12:29:58;;;;;;;2.97;2.67;;;;;;;;;;4977814;28;20618;-84
2021/05/05 12:32:23;;;;;;;3.40;3.00;;;;;;;;;;4985019;28;20273;-84
2021/05/05 12:34:57;;;;;;;2.80;2.60;;;;;;;;;;4977925;28;20290;-84
2021/05/05 12:37:24;;;;;;;2.70;2.50;;;;;;;;;;4978804;28;20178;-85
2021/05/05 12:39:52;;;;;;;3.00;2.80;;;;;;;;;;4978771;28;20525;-84
2021/05/05 12:42:17;;;;;;;4.47;2.83;;;;;;;;;;4978712;28;20189;-84
2021/05/05 12:44:42;;;;;;;3.20;2.90;;;;;;;;;;4978139;28;20202;-84
2021/05/05 12:47:14;;;;;;;2.90;2.70;;;;;;;;;;4978744;28;20595;-84
2021/05/05 12:49:40;;;;;;;3.50;3.20;;;;;;;;;;4978667;28;20534;-85
2021/05/05 12:52:07;;;;;;;3.60;3.30;;;;;;;;;;4974530;28;20179;-84
2021/05/05 12:54:42;;;;;;;3.57;3.27;;;;;;;;;;4978059;28;20588;-84
2021/05/05 12:57:14;;;;;;;3.53;3.20;;;;;;;;;;4978471;28;20556;-84
2021/05/05 12:59:40;;;;;;;4.57;3.20;;;;;;;;;;4977776;28;20230;-84
2021/05/05 13:02:06;;;;;;;3.30;3.10;;;;;;;;;;4978138;28;20652;-84
2021/05/05 13:04:35;;;;;;;3.23;2.93;;;;;;;;;;4977053;28;20174;-84
2021/05/05 13:07:01;;;;;;;2.60;2.40;;;;;;;;;;4977855;28;20508;-84
2021/05/05 13:09:26;;;;;;;2.93;2.67;;;;;;;;;;4978165;28;20236;-83
2021/05/05 13:12:07;;;;;;;3.93;2.57;;;;;;;;;;4977915;28;20174;-83
2021/05/05 13:30:49;;;;;;;1.97;1.80;;;;;;;;;;5035741;28;20184;-83
2021/05/05 13:33:18;;;;;;;2.40;2.20;;;;;;;;;;5037162;28;20157;-83
2021/05/05 13:35:48;;;;;;;1.70;1.60;;;;;;;;;;5036192;28;20203;-83
2021/05/05 13:38:15;;;;;;;2.07;1.97;;;;;;;;;;5036233;28;20176;-84
2021/05/05 13:40:52;;;;;;;2.03;1.90;;;;;;;;;;5018455;28;20264;-84
2021/05/05 13:43:34;;;;;;;4.93;3.33;;;;;;;;;;5035682;28;20210;-84
2021/05/05 13:51:09;;;;;;;2.83;2.07;;;;;;;;;;5035932;28;20172;-83
2021/05/05 13:53:36;;;;;;;2.50;2.27;;;;;;;;;;5035729;28;20173;-84
2021/05/05 13:56:01;;;;;;;2.40;2.20;;;;;;;;;;5036376;28;20172;-83
2021/05/05 13:58:27;;;;;;;1.97;1.87;;;;;;;;;;5035783;28;20180;-83
2021/05/05 14:00:52;;;;;;;5.83;4.80;;;;;;;;;;5018252;28;20176;-83
2021/05/05 14:03:17;;;;;;;3.77;2.63;;;;;;;;;;5035838;28;20175;-83
2021/05/05 14:05:47;;;;;;;2.70;2.50;;;;;;;;;;5035563;28;20193;-84
2021/05/05 14:08:12;;;;;;;3.20;2.90;;;;;;;;;;5035617;28;20165;-84
2021/05/05 14:10:38;;;;;;;4.60;3.83;;;;;;;;;;5017777;28;20187;-84
2021/05/05 14:13:03;;;;;;;26.07;20.90;;;;;;;;;;5035438;28;20168;-84
2021/05/05 14:15:35;;;;;;;19.13;15.63;;;;;;;;;;5035250;28;20201;-82
2021/05/05 14:18:01;;;;;;;4.60;4.20;;;;;;;;;;5036094;28;20228;-83
2021/05/05 14:20:27;;;;;;;4.70;4.30;;;;;;;;;;5035213;28;20645;-83
2021/05/05 14:22:52;;;;;;;6.20;5.33;;;;;;;;;;5035905;28;20558;-81
2021/05/05 14:25:18;;;;;;;5.17;4.53;;;;;;;;;;5035385;28;20196;-83
2021/05/05 14:27:44;;;;;;;5.07;4.20;;;;;;;;;;5035342;28;20169;-83
2021/05/05 14:30:09;;;;;;;5.63;5.00;;;;;;;;;;5035130;28;20207;-83
2021/05/05 14:32:35;;;;;;;7.43;6.70;;;;;;;;;;5035468;28;20173;-83
2021/05/05 14:35:01;;;;;;;13.73;11.07;;;;;;;;;;5035080;28;20200;-84
2021/05/05 14:37:27;;;;;;;8.07;7.03;;;;;;;;;;5035030;28;20257;-84
2021/05/05 14:39:54;;;;;;;15.03;10.83;;;;;;;;;;5034950;28;20211;-83
2021/05/05 14:42:24;;;;;;;20.63;13.60;;;;;;;;;;5016851;28;20177;-83
2021/05/05 14:45:27;;;;;;;16.07;10.90;;;;;;;;;;5035074;28;20192;-83
2021/05/05 14:47:59;;;;;;;7.80;6.07;;;;;;;;;;5034033;28;20687;-83
2021/05/05 14:50:25;;;;;;;7.33;6.23;;;;;;;;;;5017638;28;20568;-83
2021/05/05 14:52:50;;;;;;;7.67;5.33;;;;;;;;;;5034351;28;20211;-84
2021/05/05 14:55:15;;;;;;;8.20;6.00;;;;;;;;;;5033791;28;20208;-82
2021/05/05 14:57:46;;;;;;;7.20;5.97;;;;;;;;;;5033659;28;20182;-82
2021/05/05 15:00:11;;;;;;;7.30;5.73;;;;;;;;;;5031535;28;20172;-83
2021/05/05 15:02:37;;;;;;;9.47;6.70;;;;;;;;;;5033881;28;20635;-83
2021/05/05 15:05:03;;;;;;;11.17;6.47;;;;;;;;;;5033887;28;20662;-82
2021/05/05 15:07:30;;;;;;;10.20;6.93;;;;;;;;;;5033867;28;20172;-82
2021/05/05 15:10:46;;;;;;;11.40;8.73;;;;;;;;;;5033910;28;20218;-82
2021/05/05 15:12:49;;;;;;;14.73;9.30;;;;;;;;;;5021995;28;20172;-82
2021/05/05 15:15:39;;;;;;;7.17;6.00;;;;;;;;;;5031787;28;20192;-83
2021/05/05 15:27:59;;;;;;;11.40;7.93;;;;;;;;;;5031162;28;20267;-82
2021/05/05 15:28:45;;;;;;;10.07;7.50;;;;;;;;;;5033744;28;20189;-82